createdAt,value
2022-08-30T16:21:43.013Z,43.80
2022-08-30T16:24:46.616Z,44.04
2022-08-30T16:27:49.628Z,44.25
2022-08-30T16:30:53.722Z,44.10
2022-08-30T16:34:02.599Z,43.99
2022-08-30T16:37:07.860Z,44.43
2022-08-30T16:40:12.157Z,44.45
2022-08-30T16:43:16.384Z,44.72
2022-08-30T16:46:23.241Z,44.53
2022-08-30T16:49:26.693Z,44.86
2022-08-30T16:52:29.531Z,45.24
2022-08-30T16:55:36.438Z,45.27
2022-08-30T16:58:39.188Z,45.57
2022-08-30T17:01:44.083Z,45.08
2022-08-30T17:04:52.945Z,45.11
2022-08-30T17:07:56.363Z,45.67
2022-08-30T17:10:59.658Z,45.79
2022-08-30T17:14:03.907Z,46.45
2022-08-30T17:17:06.918Z,46.75
2022-08-30T17:20:10.479Z,47.73
2022-08-30T17:23:14.293Z,48.46
2022-08-30T17:26:17.748Z,49.29
2022-08-30T17:29:20.605Z,50.18
2022-08-30T17:32:25.507Z,50.73
2022-08-30T17:35:28.769Z,50.91
2022-08-30T17:38:32.162Z,51.29
2022-08-30T17:41:35.410Z,51.91
2022-08-30T17:44:42.158Z,52.39
2022-08-30T17:47:45.998Z,52.69
2022-08-30T17:50:56.073Z,53.08
2022-08-30T17:53:59.719Z,53.68
2022-08-30T17:57:10.795Z,54.08
2022-08-30T18:00:15.771Z,53.93
2022-08-30T18:03:18.949Z,53.87
2022-08-30T18:06:21.986Z,54.00
2022-08-30T18:09:25.176Z,53.80
2022-08-30T18:12:27.858Z,53.42
2022-08-30T18:15:31.009Z,53.20
2022-08-30T18:18:33.718Z,53.24
2022-08-30T18:21:37.581Z,53.32
2022-08-30T18:24:40.644Z,53.29
2022-08-30T18:27:43.795Z,53.30
2022-08-30T18:30:56.060Z,53.51
2022-08-30T18:34:00.446Z,53.97
2022-08-30T18:37:03.258Z,54.02
2022-08-30T18:40:09.692Z,54.22
2022-08-30T18:43:12.660Z,54.59
2022-08-30T18:46:18.089Z,54.88
2022-08-30T18:49:21.440Z,55.21
2022-08-30T18:52:26.179Z,55.40
2022-08-30T18:55:29.066Z,55.87
2022-08-30T18:58:32.193Z,56.00
2022-08-30T19:01:34.997Z,56.35
2022-08-30T19:04:39.006Z,56.45
2022-08-30T19:07:45.929Z,56.33
2022-08-30T19:10:50.386Z,56.25
2022-08-30T19:13:54.565Z,56.68
2022-08-30T19:17:02.004Z,56.94
2022-08-30T19:20:11.475Z,56.87
2022-08-30T19:23:14.561Z,56.77
2022-08-30T19:26:17.507Z,57.02
2022-08-30T19:29:21.127Z,57.51
2022-08-30T19:32:23.962Z,57.31
2022-08-30T19:35:27.019Z,57.34
2022-08-30T19:38:35.656Z,57.61
2022-08-30T19:41:38.697Z,57.66
2022-08-30T19:44:41.460Z,57.90
2022-08-30T19:47:46.044Z,58.37
2022-08-30T19:50:49.769Z,58.23
2022-08-30T19:53:53.003Z,58.13
2022-08-30T19:57:00.593Z,58.09
2022-08-30T20:00:07.579Z,58.68
2022-08-30T20:03:14.129Z,58.94
2022-08-30T20:06:19.765Z,59.31
2022-08-30T20:09:22.793Z,59.53
2022-08-30T20:12:26.419Z,59.09
2022-08-30T20:15:29.074Z,59.24
2022-08-30T20:18:33.453Z,59.45
2022-08-30T20:21:36.687Z,59.91
2022-08-30T20:24:43.965Z,60.14
2022-08-30T20:27:46.992Z,60.26
2022-08-30T20:30:50.592Z,60.45
2022-08-30T20:33:53.382Z,60.85
2022-08-30T20:36:57.738Z,61.31
2022-08-30T20:40:02.247Z,61.70
2022-08-30T20:43:06.929Z,61.29
2022-08-30T20:46:15.453Z,61.13
2022-08-30T20:49:20.414Z,60.14
2022-08-30T20:52:23.431Z,59.61
2022-08-30T20:55:26.892Z,59.69
2022-08-30T20:58:30.949Z,59.92
2022-08-30T21:01:36.502Z,59.71
2022-08-30T21:04:41.058Z,59.87
2022-08-30T21:07:45.861Z,59.38
2022-08-30T21:10:48.816Z,59.25
2022-08-30T21:13:51.728Z,59.62
2022-08-30T21:16:54.481Z,59.44
2022-08-30T21:19:57.719Z,59.47
2022-08-30T21:23:03.173Z,59.18
2022-08-30T21:26:08.060Z,59.42
2022-08-30T21:29:12.013Z,59.62
2022-08-30T21:32:15.129Z,60.02
2022-08-30T21:35:36.827Z,60.47
2022-08-30T21:38:39.805Z,60.45
2022-08-30T21:41:43.705Z,61.10
2022-08-30T21:44:46.678Z,61.17
2022-08-30T21:47:49.409Z,61.31
2022-08-30T21:50:52.373Z,61.60
2022-08-30T21:53:57.139Z,61.81
2022-08-30T21:57:03.204Z,62.23
2022-08-30T22:00:07.320Z,62.68
2022-08-30T22:03:09.931Z,63.56
2022-08-30T22:06:14.458Z,62.97
2022-08-30T22:09:19.958Z,64.17
2022-08-30T22:12:23.675Z,64.47
2022-08-30T22:15:28.811Z,64.41
2022-08-30T22:18:33.029Z,64.56
2022-08-30T22:21:37.816Z,65.13
2022-08-30T22:24:40.839Z,64.70
2022-08-30T22:27:43.638Z,64.40
2022-08-30T22:30:48.047Z,64.90
2022-08-30T22:33:51.773Z,65.43
2022-08-30T22:36:54.728Z,65.66
2022-08-30T22:39:57.397Z,66.41
2022-08-30T22:43:01.287Z,66.73
2022-08-30T22:46:07.147Z,67.11
2022-08-30T22:49:11.146Z,67.71
2022-08-30T22:52:14.411Z,68.33
2022-08-30T22:55:17.483Z,68.89
2022-08-30T22:58:20.332Z,69.51
2022-08-30T23:01:27.140Z,69.63
2022-08-30T23:04:29.860Z,70.16
2022-08-30T23:07:32.779Z,70.78
2022-08-30T23:10:35.976Z,70.98
2022-08-30T23:13:39.027Z,71.08
2022-08-30T23:16:41.720Z,71.21
2022-08-30T23:19:44.728Z,71.42
2022-08-30T23:22:57.933Z,71.59
2022-08-30T23:26:20.512Z,71.09
2022-08-30T23:29:41.917Z,71.33
2022-08-30T23:33:03.742Z,71.15
2022-08-30T23:36:30.154Z,71.55
2022-08-30T23:39:51.657Z,71.66
2022-08-30T23:43:13.223Z,71.65
2022-08-30T23:46:35.159Z,71.88
2022-08-30T23:49:56.628Z,71.95
2022-08-30T23:53:18.198Z,71.81
2022-08-30T23:56:39.416Z,71.27
